createdAt,value
2023-02-12T00:01:51.256Z,101941.59
2023-02-12T00:06:54.024Z,101943.31
2023-02-12T00:11:56.890Z,101947.78
2023-02-12T00:17:01.350Z,101948.59
2023-02-12T00:22:04.320Z,101943.91
2023-02-12T00:27:07.077Z,101949.03
2023-02-12T00:32:11.802Z,101940.84
2023-02-12T00:37:15.369Z,101948.16
2023-02-12T00:42:18.174Z,101950.84
2023-02-12T00:47:23.094Z,101957.88
2023-02-12T00:52:26.154Z,101963.19
2023-02-12T00:57:28.958Z,101964.91
2023-02-12T01:02:34.011Z,101971.19
2023-02-12T01:07:38.475Z,101974.19
2023-02-12T01:12:41.544Z,101972.16
2023-02-12T01:17:46.345Z,101980.69
2023-02-12T01:22:49.271Z,101978.03
2023-02-12T01:27:54.825Z,101970.81
2023-02-12T01:33:00.597Z,101968.78
2023-02-12T01:38:03.390Z,101983.44
2023-02-12T01:43:08.223Z,101983.03
2023-02-12T01:48:12.588Z,101977.09
2023-02-12T01:53:20.228Z,101983.41
2023-02-12T01:58:26.053Z,101975.44
2023-02-12T02:03:30.502Z,101980.91
2023-02-12T02:08:34.902Z,101970.81
2023-02-12T02:13:55.072Z,101971.94
2023-02-12T02:19:09.393Z,101969.78
2023-02-12T02:24:39.478Z,101971.50
2023-02-12T02:29:49.772Z,101960.81
2023-02-12T02:35:00.521Z,101964.69
2023-02-12T02:40:13.085Z,101970.25
2023-02-12T02:45:19.952Z,101970.53
2023-02-12T02:50:28.724Z,101968.81
2023-02-12T02:55:38.006Z,101958.31
2023-02-12T03:00:45.266Z,101970.72
2023-02-12T03:05:54.200Z,101976.91
2023-02-12T03:11:00.947Z,101975.03
2023-02-12T03:16:10.113Z,101980.38
2023-02-12T03:21:19.238Z,101991.34
2023-02-12T03:26:27.275Z,102000.69
2023-02-12T03:31:37.171Z,102011.59
2023-02-12T03:36:52.486Z,102015.41
2023-02-12T03:42:03.479Z,102021.94
2023-02-12T03:47:17.164Z,102018.53
2023-02-12T03:52:21.459Z,102020.53
2023-02-12T03:57:30.547Z,102034.22
2023-02-12T04:02:33.566Z,102040.75
2023-02-12T04:07:38.280Z,102043.53
2023-02-12T04:12:44.136Z,102051.78
2023-02-12T04:17:55.388Z,102061.88
2023-02-12T04:23:12.628Z,102053.13
2023-02-12T04:28:28.771Z,102059.56
2023-02-12T04:33:40.909Z,102059.91
2023-02-12T04:38:52.631Z,102064.59
2023-02-12T04:43:55.454Z,102068.41
2023-02-12T04:48:59.971Z,102067.72
2023-02-12T04:54:04.158Z,102076.84
2023-02-12T04:59:07.504Z,102080.59
2023-02-12T05:04:12.834Z,102083.47
2023-02-12T05:09:19.260Z,102079.06
2023-02-12T05:14:24.789Z,102078.34
2023-02-12T05:19:27.706Z,102082.09
2023-02-12T05:24:31.846Z,102081.31
2023-02-12T05:29:34.704Z,102077.88
2023-02-12T05:34:38.181Z,102081.56
2023-02-12T05:39:42.511Z,102078.06
2023-02-12T05:44:45.520Z,102081.78
2023-02-12T05:49:48.326Z,102084.63
2023-02-12T05:54:52.468Z,102095.41
2023-02-12T05:59:55.543Z,102092.81
2023-02-12T06:04:58.306Z,102100.13
2023-02-12T06:10:02.464Z,102110.94
2023-02-12T06:15:05.622Z,102103.88
2023-02-12T06:20:08.959Z,102112.03
2023-02-12T06:25:13.114Z,102119.25
2023-02-12T06:30:16.731Z,102119.31
2023-02-12T06:35:19.729Z,102126.63
2023-02-12T06:40:24.129Z,102140.13
2023-02-12T06:45:27.048Z,102145.56
2023-02-12T06:50:31.326Z,102143.00
2023-02-12T06:55:35.822Z,102150.25
2023-02-12T07:00:38.628Z,102150.31
2023-02-12T07:05:41.487Z,102160.16
2023-02-12T07:10:49.658Z,102166.56
2023-02-12T07:15:52.582Z,102173.81
2023-02-12T07:20:57.309Z,102176.53
2023-02-12T07:26:03.722Z,102187.34
2023-02-12T07:31:11.310Z,102176.66
2023-02-12T07:36:16.155Z,102183.78
2023-02-12T07:41:22.267Z,102191.06
2023-02-12T07:46:29.796Z,102195.56
2023-02-12T07:51:33.764Z,102197.47
2023-02-12T07:56:39.870Z,102209.09
2023-02-12T08:01:44.546Z,102210.03
2023-02-12T08:06:49.436Z,102207.22
2023-02-12T08:11:53.825Z,102224.19
2023-02-12T08:16:56.638Z,102233.41
2023-02-12T08:21:59.566Z,102237.31
2023-02-12T08:27:03.885Z,102225.38
2023-02-12T08:32:10.584Z,102225.19
2023-02-12T08:37:13.482Z,102223.25
2023-02-12T08:42:17.720Z,102238.63
2023-02-12T08:47:20.481Z,102234.38
2023-02-12T08:52:23.219Z,102229.53
2023-02-12T08:57:27.444Z,102230.06
2023-02-12T09:02:30.243Z,102239.53
2023-02-12T09:07:33.169Z,102239.16
2023-02-12T09:12:37.364Z,102246.03
2023-02-12T09:17:41.693Z,102243.97
2023-02-12T09:22:44.430Z,102253.59
2023-02-12T09:27:48.491Z,102254.25
2023-02-12T09:32:51.244Z,102268.44
2023-02-12T09:37:54.439Z,102263.84
2023-02-12T09:43:07.488Z,102266.34
2023-02-12T09:48:32.874Z,102275.09
2023-02-12T09:53:40.279Z,102281.22
2023-02-12T09:58:48.383Z,102282.88
2023-02-12T10:03:53.350Z,102290.81
2023-02-12T10:09:23.107Z,102286.19
2023-02-12T10:15:01.119Z,102292.41
2023-02-12T10:20:24.703Z,102285.06
2023-02-12T10:25:37.211Z,102292.22
2023-02-12T10:30:49.436Z,102294.75
2023-02-12T10:35:58.310Z,102287.38
2023-02-12T10:41:02.500Z,102292.69
2023-02-12T10:46:06.789Z,102289.03
2023-02-12T10:51:30.817Z,102281.75
2023-02-12T10:56:33.764Z,102278.00
2023-02-12T11:01:39.740Z,102277.06
2023-02-12T11:06:58.469Z,102283.22
2023-02-12T11:12:01.720Z,102280.53
2023-02-12T11:17:06.066Z,102272.34
2023-02-12T11:22:14.564Z,102266.84
2023-02-12T11:27:25.218Z,102267.72
2023-02-12T11:32:29.444Z,102271.28
2023-02-12T11:37:36.418Z,102275.69
2023-02-12T11:42:41.434Z,102269.19
2023-02-12T11:47:46.461Z,102274.34
2023-02-12T11:52:51.851Z,102268.94
2023-02-12T11:58:02.967Z,102260.88
2023-02-12T12:03:16.291Z,102255.47
2023-02-12T12:08:25.377Z,102262.63
2023-02-12T12:13:34.876Z,102266.25
2023-02-12T12:19:05.414Z,102259.94
2023-02-12T12:24:15.863Z,102266.09
2023-02-12T12:29:25.580Z,102262.38
2023-02-12T12:34:30.257Z,102260.56
2023-02-12T12:39:37.949Z,102254.13
2023-02-12T12:44:56.316Z,102255.88
2023-02-12T12:50:24.007Z,102252.22
2023-02-12T12:56:00.047Z,102254.00
2023-02-12T13:01:21.544Z,102248.56
2023-02-12T13:06:39.404Z,102235.09
2023-02-12T13:11:56.385Z,102227.78
2023-02-12T13:17:09.164Z,102233.13
2023-02-12T13:22:24.210Z,102232.06
2023-02-12T13:27:34.503Z,102233.81
2023-02-12T13:32:43.254Z,102232.84
2023-02-12T13:37:50.336Z,102239.09
2023-02-12T13:42:59.344Z,102237.28
2023-02-12T13:48:21.446Z,102239.91
2023-02-12T13:53:32.218Z,102236.25
2023-02-12T13:58:51.949Z,102238.97
2023-02-12T14:03:54.812Z,102237.09
2023-02-12T14:09:11.052Z,102235.22
2023-02-12T14:14:14.264Z,102232.50
2023-02-12T14:19:38.737Z,102244.13
2023-02-12T14:24:52.666Z,102239.63
2023-02-12T14:30:17.878Z,102237.84
2023-02-12T14:35:35.138Z,102236.72
2023-02-12T14:40:42.779Z,102233.13
2023-02-12T14:45:45.731Z,102228.63
2023-02-12T14:50:52.019Z,102242.31
2023-02-12T14:55:58.208Z,102242.31
2023-02-12T15:01:04.060Z,102238.84
2023-02-12T15:06:14.560Z,102237.97
2023-02-12T15:11:35.109Z,102239.63
2023-02-12T15:16:50.612Z,102252.16
2023-02-12T15:21:55.470Z,102248.63
2023-02-12T15:27:01.460Z,102253.13
2023-02-12T15:32:07.863Z,102243.28
2023-02-12T15:37:17.840Z,102248.63
2023-02-12T15:42:31.541Z,102245.94
2023-02-12T15:47:34.682Z,102254.00
2023-02-12T15:52:40.681Z,102254.09
2023-02-12T15:57:45.854Z,102255.84
2023-02-12T16:02:53.299Z,102255.84
2023-02-12T16:07:56.999Z,102257.66
2023-02-12T16:13:01.524Z,102261.28
2023-02-12T16:18:06.734Z,102265.75
2023-02-12T16:23:10.134Z,102266.63
2023-02-12T16:28:23.835Z,102271.91
2023-02-12T16:33:43.280Z,102274.66
2023-02-12T16:38:47.910Z,102283.63
2023-02-12T16:44:12.950Z,102280.00
2023-02-12T16:49:18.720Z,102281.69
2023-02-12T16:54:31.220Z,102286.97
2023-02-12T16:59:34.958Z,102286.09
2023-02-12T17:04:39.726Z,102297.75
2023-02-12T17:09:42.687Z,102295.06
2023-02-12T17:14:45.463Z,102294.25
2023-02-12T17:19:49.784Z,102295.28
2023-02-12T17:24:53.185Z,102289.06
2023-02-12T17:29:56.014Z,102297.22
2023-02-12T17:35:00.199Z,102301.88
2023-02-12T17:40:02.949Z,102303.81
2023-02-12T17:45:06.516Z,102303.91
2023-02-12T17:50:12.824Z,102307.63
2023-02-12T17:55:17.388Z,102315.81
2023-02-12T18:00:21.556Z,102303.34
2023-02-12T18:05:25.710Z,102302.53
2023-02-12T18:10:28.472Z,102312.53
2023-02-12T18:15:31.274Z,102314.44
2023-02-12T18:20:35.419Z,102312.78
2023-02-12T18:25:42.105Z,102313.75
2023-02-12T18:30:45.070Z,102306.69
2023-02-12T18:35:59.949Z,102306.75
2023-02-12T18:41:07.328Z,102294.31
2023-02-12T18:46:12.111Z,102295.25
2023-02-12T18:51:18.979Z,102294.16
2023-02-12T18:56:21.754Z,102290.28
2023-02-12T19:01:25.600Z,102297.16
2023-02-12T19:06:30.847Z,102291.44
2023-02-12T19:11:35.139Z,102286.75
2023-02-12T19:16:38.054Z,102296.28
2023-02-12T19:21:42.443Z,102296.97
2023-02-12T19:26:46.396Z,102296.88
2023-02-12T19:31:49.765Z,102289.50
2023-02-12T19:36:54.064Z,102301.22
2023-02-12T19:41:57.260Z,102307.47
2023-02-12T19:47:00.163Z,102308.25
2023-02-12T19:52:04.615Z,102288.41
2023-02-12T19:57:09.203Z,102298.09
2023-02-12T20:02:12.203Z,102300.84
2023-02-12T20:07:16.303Z,102294.22
2023-02-12T20:12:19.299Z,102291.44
2023-02-12T20:17:22.131Z,102302.06
2023-02-12T20:22:26.257Z,102297.28
2023-02-12T20:27:29.219Z,102291.81
2023-02-12T20:32:34.555Z,102297.09
2023-02-12T20:37:38.960Z,102294.16
2023-02-12T20:42:41.961Z,102291.31
2023-02-12T20:47:44.785Z,102300.16
2023-02-12T20:52:48.956Z,102301.88
2023-02-12T20:57:51.965Z,102297.09
2023-02-12T21:02:55.440Z,102296.22
2023-02-12T21:07:59.690Z,102303.03
2023-02-12T21:13:02.525Z,102297.34
2023-02-12T21:18:05.474Z,102300.59
2023-02-12T21:23:09.675Z,102291.41
2023-02-12T21:28:12.622Z,102298.09
2023-02-12T21:33:15.398Z,102297.00
2023-02-12T21:38:19.583Z,102303.44
2023-02-12T21:43:22.341Z,102305.63
2023-02-12T21:48:25.135Z,102299.91
2023-02-12T21:53:30.401Z,102289.25
2023-02-12T21:58:33.206Z,102296.69
2023-02-12T22:03:36.185Z,102290.59
2023-02-12T22:08:40.521Z,102297.28
2023-02-12T22:13:43.535Z,102293.63
2023-02-12T22:18:47.106Z,102307.38
2023-02-12T22:23:51.726Z,102296.97
2023-02-12T22:28:56.730Z,102304.75
2023-02-12T22:34:02.227Z,102301.97
2023-02-12T22:39:06.982Z,102310.25
2023-02-12T22:44:11.085Z,102316.28
2023-02-12T22:49:14.500Z,102308.41
2023-02-12T22:54:20.110Z,102312.28
2023-02-12T22:59:22.932Z,102319.31
2023-02-12T23:04:26.026Z,102315.56
2023-02-12T23:09:30.363Z,102318.69
2023-02-12T23:14:33.911Z,102312.44
2023-02-12T23:19:36.764Z,102320.81
2023-02-12T23:24:40.940Z,102314.50
2023-02-12T23:29:43.766Z,102315.41
2023-02-12T23:34:46.530Z,102311.78
2023-02-12T23:39:51.778Z,102304.25
2023-02-12T23:44:56.748Z,102307.72
2023-02-12T23:49:59.756Z,102308.16
2023-02-12T23:55:03.936Z,102310.00
